Webster Mills, Pennsylvania
Current Conditions -  °F | °C
As of 2:53 PM on Thursday 18 Dec 2014 (Local Time) from KHGR Reporting Station
Few Clouds Few Clouds  
Wind Chill: -3°   Ceiling: Unl
Heat Index:   Visibility: 10mi
Dew Point: -6°   Wind: 16mph
Humidity: 55%   Direction: 320°NW
Pressure: 30.08"   Gusts: NA
Location:  39.973°N, 77.9661°W
Report Text: KHGR 181953Z 32014KT 10SM FEW031 02/M06 A3008 RMK AO2 SLP202 T00221061
Loading
Personal Weather Stations






























Interactive Weather Map New forecast layout! Learn more

10-Day Weather Forecast

Advertisements
Track Severe Weather on mobile